Time;durP1;ratioP1;P1;durP2;ratioP2;P2;SDS_P1;SDS_P2;PMS_P1;PMS_P2;Temp;Humidity;BMP_temperature;BMP_pressure;BME280_temperature;BME280_humidity;BME280_pressure;Samples;Min_cycle;Max_cycle;Signal;HPM_P1;HPM_P2
2023/07/02 00:00:51;;;;;;;9.50;7.25;;;;;;;-148.88;100.00;-17125.47;5017390;28;20061;-73
2023/07/02 00:03:21;;;;;;;9.68;7.03;;;;;;;-148.88;100.00;-17125.47;5035149;28;20104;-74
2023/07/02 00:05:47;;;;;;;11.13;7.18;;;;;;;-148.88;100.00;-17125.47;5017465;28;20023;-73
2023/07/02 00:08:12;;;;;;;14.63;8.20;;;;;;;-148.88;100.00;-17125.47;5017427;28;20076;-73
2023/07/02 00:10:37;;;;;;;12.95;8.07;;;;;;;-148.88;100.00;-17125.47;5017500;28;20511;-74
2023/07/02 00:13:03;;;;;;;10.35;8.35;;;;;;;-148.88;100.00;-17125.47;5017314;28;20025;-73
2023/07/02 00:15:28;;;;;;;11.10;8.57;;;;;;;-148.88;100.00;-17125.47;5034892;28;20387;-74
2023/07/02 00:17:57;;;;;;;11.65;8.98;;;;;;;-148.88;100.00;-17125.47;5035031;28;20029;-74
2023/07/02 00:20:22;;;;;;;16.08;8.85;;;;;;;-148.88;100.00;-17125.47;5017338;28;20029;-74
2023/07/02 00:22:49;;;;;;;11.10;8.88;;;;;;;-148.88;100.00;-17125.47;5035050;28;20372;-74
2023/07/02 00:25:14;;;;;;;13.93;9.38;;;;;;;-148.88;100.00;-17125.47;5035149;28;20026;-74
2023/07/02 00:27:40;;;;;;;12.30;8.85;;;;;;;-148.88;100.00;-17125.47;5034917;28;20029;-73
2023/07/02 00:30:06;;;;;;;12.35;8.82;;;;;;;-148.88;100.00;-17125.47;5017029;28;20053;-74
2023/07/02 00:32:32;;;;;;;15.35;10.00;;;;;;;-148.88;100.00;-17125.47;5016848;28;20083;-74
2023/07/02 00:34:58;;;;;;;15.52;11.32;;;;;;;-148.88;100.00;-17125.47;5034536;28;20021;-73
2023/07/02 00:37:24;;;;;;;12.30;10.98;;;;;;;-148.88;100.00;-17125.47;5034588;28;20021;-73
2023/07/02 00:39:49;;;;;;;16.25;12.32;;;;;;;-148.88;100.00;-17125.47;5034548;28;20071;-73
2023/07/02 00:42:14;;;;;;;20.55;12.88;;;;;;;-148.88;100.00;-17125.47;5016544;28;20021;-74
2023/07/02 00:44:40;;;;;;;17.73;13.18;;;;;;;-148.88;100.00;-17125.47;5034471;28;20057;-73
2023/07/02 00:47:08;;;;;;;18.95;14.60;;;;;;;-148.88;100.00;-17125.47;5034463;28;20449;-73
2023/07/02 00:49:33;;;;;;;18.88;13.68;;;;;;;-148.88;100.00;-17125.47;5034619;28;20075;-74
2023/07/02 00:51:59;;;;;;;16.55;13.52;;;;;;;-148.88;100.00;-17125.47;5016568;28;20116;-73
2023/07/02 00:54:24;;;;;;;18.67;14.55;;;;;;;-148.88;100.00;-17125.47;5016442;28;20079;-74
2023/07/02 00:56:50;;;;;;;16.25;14.40;;;;;;;-148.88;100.00;-17125.47;5016292;28;20057;-74
2023/07/02 00:59:15;;;;;;;19.13;14.13;;;;;;;-148.88;100.00;-17125.47;5015335;28;20096;-73
2023/07/02 01:01:41;;;;;;;16.48;14.48;;;;;;;-148.88;100.00;-17125.47;5034294;28;20033;-73
2023/07/02 01:04:07;;;;;;;18.90;14.32;;;;;;;-148.88;100.00;-17125.47;5033982;28;20388;-73
2023/07/02 01:06:35;;;;;;;18.95;14.75;;;;;;;-148.88;100.00;-17125.47;5034213;28;20115;-74
2023/07/02 01:09:03;;;;;;;18.40;14.77;;;;;;;-148.88;100.00;-17125.47;5034162;28;20515;-73
2023/07/02 01:11:39;;;;;;;19.63;13.90;;;;;;;-148.88;100.00;-17125.47;5033953;28;20052;-74
2023/07/02 01:14:13;;;;;;;19.17;13.02;;;;;;;-148.88;100.00;-17125.47;5033554;28;20495;-73
2023/07/02 01:16:43;;;;;;;15.85;13.02;;;;;;;-148.88;100.00;-17125.47;5016118;28;20033;-73
2023/07/02 01:19:18;;;;;;;16.70;12.98;;;;;;;-148.88;100.00;-17125.47;5033764;28;20025;-73
2023/07/02 01:21:45;;;;;;;15.20;12.32;;;;;;;-148.88;100.00;-17125.47;5033976;28;20025;-73
2023/07/02 01:24:10;;;;;;;15.23;12.05;;;;;;;-148.88;100.00;-17125.47;5033796;28;20029;-74
2023/07/02 01:26:37;;;;;;;16.83;12.45;;;;;;;-148.88;100.00;-17125.47;5033917;28;20025;-73
2023/07/02 01:29:19;;;;;;;13.98;11.60;;;;;;;-148.88;100.00;-17125.47;5015841;28;20041;-74
2023/07/02 01:31:45;;;;;;;14.40;11.52;;;;;;;-148.88;100.00;-17125.47;5033588;28;20018;-74
2023/07/02 01:34:11;;;;;;;13.85;12.30;;;;;;;-148.88;100.00;-17125.47;5033439;28;20029;-74
2023/07/02 01:36:37;;;;;;;17.08;12.25;;;;;;;-148.88;100.00;-17125.47;5033548;28;20068;-74
2023/07/02 01:39:03;;;;;;;18.48;12.32;;;;;;;-148.88;100.00;-17125.47;5033337;28;20025;-73
2023/07/02 01:41:28;;;;;;;15.07;12.52;;;;;;;-148.88;100.00;-17125.47;5033366;28;20438;-74
2023/07/02 01:43:54;;;;;;;14.10;11.80;;;;;;;-148.88;100.00;-17125.47;5033255;28;20477;-74
2023/07/02 01:46:20;;;;;;;15.40;11.65;;;;;;;-148.88;100.00;-17125.47;5033128;28;20079;-73
2023/07/02 01:48:45;;;;;;;12.85;11.30;;;;;;;-148.88;100.00;-17125.47;5033180;28;20021;-73
2023/07/02 01:51:10;;;;;;;18.75;11.85;;;;;;;-148.88;100.00;-17125.47;5033125;28;20031;-74
2023/07/02 01:53:35;;;;;;;15.88;11.82;;;;;;;-148.88;100.00;-17125.47;5032958;28;20017;-73
2023/07/02 01:56:01;;;;;;;13.82;11.65;;;;;;;-148.88;100.00;-17125.47;5033099;28;20132;-74
2023/07/02 01:58:26;;;;;;;15.95;12.00;;;;;;;-148.88;100.00;-17125.47;5033152;28;20025;-74
2023/07/02 02:00:52;;;;;;;15.45;11.70;;;;;;;-148.88;100.00;-17125.47;5033214;28;20033;-74
2023/07/02 02:03:17;;;;;;;14.85;12.05;;;;;;;-148.88;100.00;-17125.47;5033228;28;20071;-74
2023/07/02 02:05:43;;;;;;;13.88;11.63;;;;;;;-148.88;100.00;-17125.47;5033418;28;20067;-74
2023/07/02 02:08:08;;;;;;;14.95;11.13;;;;;;;-148.88;100.00;-17125.47;5033051;28;20447;-74
2023/07/02 02:10:34;;;;;;;12.35;10.98;;;;;;;-148.88;100.00;-17125.47;5015162;28;20562;-74
2023/07/02 02:12:59;;;;;;;13.80;11.07;;;;;;;-148.88;100.00;-17125.47;5032983;28;20527;-74
2023/07/02 02:15:25;;;;;;;13.85;11.40;;;;;;;-148.88;100.00;-17125.47;5014947;28;20413;-74
2023/07/02 02:17:50;;;;;;;20.45;11.85;;;;;;;-148.88;100.00;-17125.47;5015020;28;20052;-74
2023/07/02 02:20:16;;;;;;;17.90;12.45;;;;;;;-148.88;100.00;-17125.47;5015051;28;20021;-74
2023/07/02 02:22:41;;;;;;;14.48;12.38;;;;;;;-148.88;100.00;-17125.47;5014933;28;20030;-74
2023/07/02 02:25:07;;;;;;;16.50;13.25;;;;;;;-148.88;100.00;-17125.47;5015372;28;20086;-74
2023/07/02 02:27:32;;;;;;;16.65;13.88;;;;;;;-148.88;100.00;-17125.47;5032890;28;20091;-74
2023/07/02 02:29:58;;;;;;;16.42;13.68;;;;;;;-148.88;100.00;-17125.47;5032658;28;20029;-74
2023/07/02 02:32:24;;;;;;;17.23;14.40;;;;;;;-148.88;100.00;-17125.47;5032498;28;20032;-74
2023/07/02 02:34:49;;;;;;;16.40;14.65;;;;;;;-148.88;100.00;-17125.47;5032422;28;20032;-75
2023/07/02 02:37:14;;;;;;;17.45;15.07;;;;;;;-148.88;100.00;-17125.47;5032480;28;20427;-74
2023/07/02 02:39:40;;;;;;;19.83;16.38;;;;;;;-148.88;100.00;-17125.47;5014995;28;20447;-74
2023/07/02 02:42:05;;;;;;;19.95;16.20;;;;;;;-148.88;100.00;-17125.47;5014767;28;20030;-73
2023/07/02 02:44:32;;;;;;;22.38;16.90;;;;;;;-148.88;100.00;-17125.47;5014722;28;20487;-74
2023/07/02 02:46:57;;;;;;;25.85;19.13;;;;;;;-148.88;100.00;-17125.47;5032576;28;20391;-73
2023/07/02 02:49:23;;;;;;;26.35;19.63;;;;;;;-148.88;100.00;-17125.47;5032496;28;20489;-74
2023/07/02 02:51:48;;;;;;;25.30;18.63;;;;;;;-148.88;100.00;-17125.47;5032371;28;20048;-73
2023/07/02 02:54:14;;;;;;;27.15;19.52;;;;;;;-148.88;100.00;-17125.47;5032544;28;20444;-73
2023/07/02 02:56:42;;;;;;;28.83;18.80;;;;;;;-148.88;100.00;-17125.47;5040988;22;20104;-84
2023/07/02 02:59:20;;;;;;;23.00;18.15;;;;;;;-148.88;100.00;-17125.47;5016379;28;20392;-84
2023/07/02 03:01:57;;;;;;;26.98;20.23;;;;;;;-148.88;100.00;-17125.47;5033283;28;20029;-87
2023/07/02 03:04:53;;;;;;;23.80;18.48;;;;;;;-148.88;100.00;-17125.47;5033671;28;20013;-85
2023/07/02 03:07:45;;;;;;;25.33;20.40;;;;;;;-148.88;100.00;-17125.47;5016091;28;20029;-85
2023/07/02 03:10:46;;;;;;;;;;;;;;;;;;;;;
2023/07/02 03:13:15;;;;;;;25.30;19.45;;;;;;;-148.88;100.00;-17125.47;5032535;28;20468;-85
2023/07/02 03:15:53;;;;;;;23.85;20.60;;;;;;;-148.88;100.00;-17125.47;5015078;28;20060;-84
2023/07/02 03:18:52;;;;;;;28.58;21.38;;;;;;;-148.88;100.00;-17125.47;5014523;28;20087;-86
2023/07/02 03:22:00;;;;;;;25.88;20.83;;;;;;;-148.88;100.00;-17125.47;5014876;28;20025;-85
2023/07/02 03:24:26;;;;;;;30.55;22.65;;;;;;;-148.88;100.00;-17125.47;5018793;28;20034;-84
2023/07/02 03:27:23;;;;;;;29.20;22.88;;;;;;;-148.88;100.00;-17125.47;5018693;28;20033;-83
2023/07/02 03:30:19;;;;;;;29.23;23.25;;;;;;;-148.88;100.00;-17125.47;4960020;28;20130;-82
2023/07/02 03:33:02;;;;;;;28.33;22.33;;;;;;;-148.88;100.00;-17125.47;4958421;28;20049;-83
2023/07/02 03:35:28;;;;;;;33.10;22.85;;;;;;;-148.88;100.00;-17125.47;5003662;23;20197;-79
2023/07/02 03:37:53;;;;;;;27.67;20.67;;;;;;;-148.88;100.00;-17125.47;5001616;28;20060;-79
2023/07/02 03:40:18;;;;;;;22.17;17.00;;;;;;;-148.88;100.00;-17125.47;5001024;28;20026;-80
2023/07/02 03:42:44;;;;;;;23.20;17.45;;;;;;;-148.88;100.00;-17125.47;5018310;28;20026;-79
2023/07/02 03:45:09;;;;;;;22.48;17.00;;;;;;;-148.88;100.00;-17125.47;5018536;28;20529;-78
2023/07/02 03:47:35;;;;;;;17.85;14.43;;;;;;;-148.88;100.00;-17125.47;5019947;28;20044;-78
2023/07/02 03:50:01;;;;;;;16.83;10.85;;;;;;;-148.88;100.00;-17125.47;5002768;28;20053;-78
2023/07/02 03:52:27;;;;;;;18.50;10.35;;;;;;;-148.88;100.00;-17125.47;5020711;28;20030;-79
2023/07/02 03:54:52;;;;;;;15.98;10.38;;;;;;;-148.88;100.00;-17125.47;5020634;28;20135;-78
2023/07/02 03:57:18;;;;;;;17.95;10.65;;;;;;;-148.88;100.00;-17125.47;5020851;28;20026;-79
2023/07/02 03:59:43;;;;;;;18.55;11.13;;;;;;;-148.88;100.00;-17125.47;5021264;28;20055;-79
2023/07/02 04:02:08;;;;;;;15.48;10.82;;;;;;;-148.88;100.00;-17125.47;5021130;28;20037;-78
2023/07/02 04:04:34;;;;;;;18.17;11.55;;;;;;;-148.88;100.00;-17125.47;5020903;28;20116;-79
2023/07/02 04:06:59;;;;;;;18.75;10.77;;;;;;;-148.88;100.00;-17125.47;5021254;28;20038;-79
2023/07/02 04:09:24;;;;;;;16.45;10.90;;;;;;;-148.88;100.00;-17125.47;5020601;28;20104;-78
2023/07/02 04:11:50;;;;;;;24.58;10.75;;;;;;;-148.88;100.00;-17125.47;5020452;28;20029;-79
2023/07/02 04:14:15;;;;;;;18.40;10.32;;;;;;;-148.88;100.00;-17125.47;5019506;28;20026;-79
2023/07/02 04:16:44;;;;;;;18.85;10.60;;;;;;;-148.88;100.00;-17125.47;5020097;28;20022;-79
2023/07/02 04:19:10;;;;;;;16.30;9.75;;;;;;;-148.88;100.00;-17125.47;5019534;28;20026;-78
2023/07/02 04:21:35;;;;;;;18.48;9.32;;;;;;;-148.88;100.00;-17125.47;5019296;28;20033;-78
2023/07/02 04:24:00;;;;;;;17.17;9.25;;;;;;;-148.88;100.00;-17125.47;5019104;28;20014;-79
2023/07/02 04:26:26;;;;;;;17.58;9.60;;;;;;;-148.88;100.00;-17125.47;5019423;28;20026;-79
2023/07/02 04:28:53;;;;;;;13.55;9.38;;;;;;;-148.88;100.00;-17125.47;5019112;28;20062;-79
2023/07/02 04:31:19;;;;;;;12.90;8.30;;;;;;;-148.88;100.00;-17125.47;5019325;28;20018;-79
2023/07/02 04:33:44;;;;;;;18.05;8.90;;;;;;;-148.88;100.00;-17125.47;5019415;28;20026;-80
2023/07/02 04:36:10;;;;;;;13.23;8.70;;;;;;;-148.88;100.00;-17125.47;5002941;28;20046;-79
2023/07/02 04:38:35;;;;;;;17.98;8.95;;;;;;;-148.88;100.00;-17125.47;5020940;28;20025;-79
2023/07/02 04:41:04;;;;;;;13.82;7.93;;;;;;;-148.88;100.00;-17125.47;5003557;28;20124;-79
2023/07/02 04:43:33;;;;;;;14.65;8.18;;;;;;;-148.88;100.00;-17125.47;5003964;28;20029;-80
2023/07/02 04:45:59;;;;;;;14.98;8.55;;;;;;;-148.88;100.00;-17125.47;5012963;28;20010;-79
2023/07/02 04:48:25;;;;;;;14.60;7.68;;;;;;;-148.88;100.00;-17125.47;5031250;28;20394;-79
2023/07/02 04:50:50;;;;;;;16.50;8.02;;;;;;;-148.88;100.00;-17125.47;5022367;28;20030;-79
2023/07/02 04:53:16;;;;;;;16.13;8.27;;;;;;;-148.88;100.00;-17125.47;5003970;28;20025;-79
2023/07/02 04:55:43;;;;;;;21.67;8.93;;;;;;;-148.88;100.00;-17125.47;5004647;28;20436;-79
2023/07/02 04:58:08;;;;;;;13.52;7.65;;;;;;;-148.88;100.00;-17125.47;5004235;28;20029;-78
2023/07/02 05:00:33;;;;;;;15.32;8.00;;;;;;;-148.88;100.00;-17125.47;5021201;28;20561;-79
2023/07/02 05:03:01;;;;;;;15.93;8.15;;;;;;;-148.88;100.00;-17125.47;5025788;28;20398;-80
2023/07/02 05:05:27;;;;;;;17.70;8.55;;;;;;;-148.88;100.00;-17125.47;5025883;28;20025;-80
2023/07/02 05:07:54;;;;;;;17.00;8.40;;;;;;;-148.88;100.00;-17125.47;5025654;28;20025;-78
2023/07/02 05:10:19;;;;;;;15.63;7.80;;;;;;;-148.88;100.00;-17125.47;5026068;28;20021;-79
2023/07/02 05:12:44;;;;;;;16.23;7.93;;;;;;;-148.88;100.00;-17125.47;5026022;28;20021;-80
2023/07/02 05:15:11;;;;;;;14.13;7.75;;;;;;;-148.88;100.00;-17125.47;5008725;28;20068;-80
2023/07/02 05:17:37;;;;;;;14.50;8.52;;;;;;;-148.88;100.00;-17125.47;5026475;28;20098;-80
2023/07/02 05:20:06;;;;;;;16.33;8.05;;;;;;;-148.88;100.00;-17125.47;5024692;28;20029;-80
2023/07/02 05:22:32;;;;;;;18.65;8.80;;;;;;;-148.88;100.00;-17125.47;5025788;28;20032;-81
2023/07/02 05:24:57;;;;;;;17.25;8.10;;;;;;;-148.88;100.00;-17125.47;5025359;28;20018;-79
2023/07/02 05:27:22;;;;;;;17.00;8.07;;;;;;;-148.88;100.00;-17125.47;5026206;28;20073;-78
2023/07/02 05:29:48;;;;;;;18.85;7.63;;;;;;;-148.88;100.00;-17125.47;5005469;28;20089;-79
2023/07/02 05:32:13;;;;;;;16.70;7.82;;;;;;;-148.88;100.00;-17125.47;5002151;28;20025;-80
2023/07/02 05:34:39;;;;;;;16.75;8.23;;;;;;;-148.88;100.00;-17125.47;5002106;28;20068;-79
2023/07/02 05:37:05;;;;;;;15.95;8.05;;;;;;;-148.88;100.00;-17125.47;5002343;28;20045;-80
2023/07/02 05:39:31;;;;;;;16.95;7.93;;;;;;;-148.88;100.00;-17125.47;5001261;28;20026;-79
2023/07/02 05:41:56;;;;;;;16.85;8.23;;;;;;;-148.88;100.00;-17125.47;5002032;28;20022;-79
2023/07/02 05:44:21;;;;;;;17.88;8.13;;;;;;;-148.88;100.00;-17125.47;5019225;28;20017;-80
2023/07/02 05:46:47;;;;;;;22.90;8.38;;;;;;;-148.88;100.00;-17125.47;5001808;28;20033;-80
2023/07/02 05:49:15;;;;;;;19.23;8.75;;;;;;;-148.88;100.00;-17125.47;5002122;28;20089;-78
2023/07/02 05:51:40;;;;;;;19.38;8.00;;;;;;;-148.88;100.00;-17125.47;5002842;28;20037;-80
2023/07/02 05:54:06;;;;;;;16.42;8.30;;;;;;;-148.88;100.00;-17125.47;5002499;28;20022;-80
2023/07/02 05:56:32;;;;;;;15.57;8.13;;;;;;;-148.88;100.00;-17125.47;5017290;28;20033;-78
2023/07/02 05:58:57;;;;;;;19.08;8.80;;;;;;;-148.88;100.00;-17125.47;5016329;28;20022;-78
2023/07/02 06:01:22;;;;;;;21.15;8.93;;;;;;;-148.88;100.00;-17125.47;5018938;28;20416;-80
2023/07/02 06:03:50;;;;;;;20.58;8.35;;;;;;;-148.88;100.00;-17125.47;5002134;28;20053;-79
2023/07/02 06:06:15;;;;;;;18.52;8.07;;;;;;;-148.88;100.00;-17125.47;5003948;28;20022;-78
2023/07/02 06:08:40;;;;;;;19.02;8.65;;;;;;;-148.88;100.00;-17125.47;5018759;28;20049;-78
2023/07/02 06:11:06;;;;;;;15.55;8.27;;;;;;;-148.88;100.00;-17125.47;5018422;28;20025;-77
2023/07/02 06:13:31;;;;;;;21.08;8.40;;;;;;;-148.88;100.00;-17125.47;5001370;28;20057;-78
2023/07/02 06:15:57;;;;;;;16.98;7.90;;;;;;;-148.88;100.00;-17125.47;5017344;28;20029;-77
2023/07/02 06:18:22;;;;;;;22.75;8.13;;;;;;;-148.88;100.00;-17125.47;4999542;28;20030;-79
2023/07/02 06:20:48;;;;;;;20.92;8.52;;;;;;;-148.88;100.00;-17125.47;5000156;28;20021;-79
2023/07/02 06:23:13;;;;;;;19.95;8.30;;;;;;;-148.88;100.00;-17125.47;5016352;28;20368;-79
2023/07/02 06:25:38;;;;;;;20.52;7.85;;;;;;;-148.88;100.00;-17125.47;5015887;28;20018;-78
2023/07/02 06:28:04;;;;;;;20.55;7.40;;;;;;;-148.88;100.00;-17125.47;4998420;28;20033;-77
2023/07/02 06:30:29;;;;;;;18.75;7.78;;;;;;;-148.88;100.00;-17125.47;5015665;28;20364;-77
2023/07/02 06:32:55;;;;;;;17.75;8.73;;;;;;;-148.88;100.00;-17125.47;4998021;28;20475;-78
2023/07/02 06:35:20;;;;;;;19.15;8.18;;;;;;;-148.88;100.00;-17125.47;4997480;28;20045;-78
2023/07/02 06:37:46;;;;;;;16.48;8.00;;;;;;;-148.88;100.00;-17125.47;4999419;28;20026;-80
2023/07/02 06:40:12;;;;;;;17.85;7.85;;;;;;;-148.88;100.00;-17125.47;5000718;28;20328;-80
2023/07/02 06:42:38;;;;;;;20.58;7.90;;;;;;;-148.88;100.00;-17125.47;5017233;28;20032;-79
2023/07/02 06:45:04;;;;;;;19.77;7.78;;;;;;;-148.88;100.00;-17125.47;5017198;28;20452;-79
2023/07/02 06:47:29;;;;;;;23.02;7.88;;;;;;;-148.88;100.00;-17125.47;5016866;28;20026;-80
2023/07/02 06:49:54;;;;;;;20.27;7.90;;;;;;;-148.88;99.18;-17125.47;5015718;28;20099;-79
2023/07/02 06:52:20;;;;;;;20.90;7.90;;;;;;;-148.88;98.34;-17125.47;5015904;28;20061;-78
2023/07/02 06:54:45;;;;;;;17.00;7.47;;;;;;;-148.88;96.39;-17125.47;4998328;28;20060;-78
2023/07/02 06:57:12;;;;;;;18.23;7.95;;;;;;;-148.88;97.49;-17125.47;5016289;28;20029;-79
2023/07/02 06:59:38;;;;;;;24.58;8.52;;;;;;;-148.88;97.27;-17125.47;5003244;28;20061;-78
2023/07/02 07:02:03;;;;;;;16.98;7.70;;;;;;;-148.88;97.32;-17125.47;5002697;28;20049;-79
2023/07/02 07:04:29;;;;;;;19.23;8.43;;;;;;;-148.88;94.48;-17125.47;5001701;28;20030;-79
2023/07/02 07:06:55;;;;;;;16.55;8.00;;;;;;;-148.88;95.42;-17125.47;5002545;28;20025;-77
2023/07/02 07:09:21;;;;;;;16.50;7.45;;;;;;;-148.88;95.78;-17125.47;5002123;28;20028;-77
2023/07/02 07:11:47;;;;;;;22.23;8.52;;;;;;;-148.88;97.41;-17125.47;5001646;28;20394;-77
2023/07/02 07:14:12;;;;;;;20.00;8.48;;;;;;;-148.88;92.46;-17125.47;5002627;28;20482;-80
2023/07/02 07:16:38;;;;;;;19.23;8.15;;;;;;;-148.88;93.46;-17125.47;5003691;28;20026;-79
2023/07/02 07:19:03;;;;;;;18.95;7.63;;;;;;;-148.88;93.61;-17125.47;5003620;28;20467;-79
2023/07/02 07:21:29;;;;;;;23.08;8.75;;;;;;;-148.88;90.36;-17125.47;5021002;28;20021;-79
2023/07/02 07:23:54;;;;;;;22.92;8.40;;;;;;;-148.88;92.79;-17125.47;5003637;28;20044;-78
2023/07/02 07:26:19;;;;;;;19.40;8.30;;;;;;;-148.88;91.18;-17125.47;5003405;28;20018;-78
2023/07/02 07:28:45;;;;;;;19.35;8.05;;;;;;;-148.88;87.66;-17125.47;5020970;28;20025;-80
2023/07/02 07:31:10;;;;;;;17.15;7.88;;;;;;;-148.88;90.86;-17125.47;5021129;28;20029;-79
2023/07/02 07:33:35;;;;;;;20.13;7.80;;;;;;;-148.88;86.84;-17125.47;5003178;28;20052;-79
2023/07/02 07:36:01;;;;;;;20.42;8.25;;;;;;;-148.88;88.85;-17125.47;5003206;28;20398;-79
2023/07/02 07:38:26;;;;;;;19.35;7.85;;;;;;;-148.88;88.09;-17125.47;5020732;28;20026;-80
2023/07/02 07:40:52;;;;;;;16.25;7.18;;;;;;;-148.88;85.14;-17125.47;5003093;28;20026;-80
2023/07/02 07:43:17;;;;;;;17.33;7.70;;;;;;;-148.88;83.21;-17125.47;5020705;28;20057;-81
2023/07/02 07:45:43;;;;;;;16.42;7.93;;;;;;;-148.88;82.96;-17125.47;5003143;28;20387;-79
2023/07/02 07:48:08;;;;;;;17.05;7.38;;;;;;;-148.88;79.78;-17125.47;5019011;28;20025;-78
2023/07/02 07:50:33;;;;;;;18.08;7.43;;;;;;;-148.88;78.08;-17125.47;5018997;28;20471;-79
2023/07/02 07:52:59;;;;;;;15.88;7.22;;;;;;;-148.88;79.66;-17125.47;5020955;28;20049;-79
2023/07/02 07:55:25;;;;;;;19.85;7.53;;;;;;;-148.88;80.26;-17125.47;5022600;28;20021;-79
2023/07/02 07:57:50;;;;;;;20.58;7.60;;;;;;;-148.88;82.06;-17125.47;5004428;28;20022;-79
2023/07/02 08:00:17;;;;;;;21.33;7.90;;;;;;;-148.88;79.68;-17125.47;5002932;28;20026;-80
2023/07/02 08:02:43;;;;;;;17.63;7.70;;;;;;;-148.88;77.85;-17125.47;5020174;28;20397;-79
2023/07/02 08:05:09;;;;;;;18.38;7.97;;;;;;;-148.88;78.23;-17125.47;5020352;28;20049;-79
2023/07/02 08:07:35;;;;;;;18.77;7.45;;;;;;;-148.88;76.12;-17125.47;5019948;28;20022;-79
2023/07/02 08:10:02;;;;;;;19.75;7.57;;;;;;;-148.88;78.31;-17125.47;5001711;28;20029;-79
2023/07/02 08:12:29;;;;;;;14.68;6.63;;;;;;;-148.88;69.56;-17125.47;5002494;28;20025;-76
2023/07/02 08:14:55;;;;;;;13.40;6.75;;;;;;;-148.88;71.09;-17125.47;5000640;28;20030;-80
2023/07/02 08:17:20;;;;;;;12.57;7.00;;;;;;;-148.88;70.27;-17125.47;5018308;28;20121;-78
2023/07/02 08:19:46;;;;;;;16.23;7.25;;;;;;;-148.88;70.96;-17125.47;5001087;28;20061;-78
2023/07/02 08:22:12;;;;;;;16.63;7.03;;;;;;;-148.88;66.21;-17125.47;5017938;28;20083;-78
2023/07/02 08:24:37;;;;;;;20.23;6.93;;;;;;;-148.88;64.11;-17125.47;5017571;28;20021;-78
2023/07/02 08:27:03;;;;;;;14.85;7.05;;;;;;;-148.88;65.37;-17125.47;5018009;28;20052;-79
2023/07/02 08:29:30;;;;;;;18.23;7.45;;;;;;;-148.88;66.33;-17125.47;5003335;28;20085;-79
2023/07/02 08:31:55;;;;;;;16.20;7.28;;;;;;;-148.88;68.39;-17125.47;5020370;28;20034;-80
2023/07/02 08:34:21;;;;;;;20.13;7.45;;;;;;;-148.88;68.53;-17125.47;5019450;28;20022;-79
2023/07/02 08:36:46;;;;;;;15.05;6.32;;;;;;;-148.88;70.11;-17125.47;5019812;28;20022;-80
2023/07/02 08:39:11;;;;;;;16.75;6.63;;;;;;;-148.88;67.08;-17125.47;5001460;28;20040;-79
2023/07/02 08:41:47;;;;;;;13.23;6.45;;;;;;;-148.88;63.64;-17125.47;5002331;28;20037;-80
2023/07/02 08:44:14;;;;;;;12.93;6.60;;;;;;;-148.88;61.85;-17125.47;5021810;28;20022;-79
2023/07/02 08:46:42;;;;;;;18.45;7.13;;;;;;;-148.88;64.54;-17125.47;5022700;28;20475;-79
2023/07/02 08:49:09;;;;;;;17.80;6.70;;;;;;;-148.88;63.83;-17125.47;5019103;28;20041;-79
2023/07/02 08:51:35;;;;;;;14.65;6.38;;;;;;;-148.88;63.35;-17125.47;5017843;28;20042;-80
2023/07/02 08:54:03;;;;;;;15.82;6.72;;;;;;;-148.88;62.72;-17125.47;4999687;28;20057;-78
2023/07/02 08:56:29;;;;;;;13.02;6.45;;;;;;;-148.88;64.23;-17125.47;5017077;28;20037;-78
2023/07/02 08:58:55;;;;;;;12.55;6.25;;;;;;;-148.88;64.27;-17125.47;4999200;28;20030;-79
2023/07/02 09:01:21;;;;;;;13.82;6.22;;;;;;;-148.88;63.10;-17125.47;4999100;28;20117;-77
2023/07/02 09:03:46;;;;;;;11.80;6.05;;;;;;;-148.88;63.03;-17125.47;5016681;28;20036;-78
2023/07/02 09:06:12;;;;;;;16.05;6.40;;;;;;;-148.88;64.64;-17125.47;5003402;28;20117;-79
2023/07/02 09:08:38;;;;;;;16.65;5.80;;;;;;;-148.88;60.54;-17125.47;5020553;28;20067;-80
2023/07/02 09:11:12;;;;;;;13.95;5.68;;;;;;;-148.88;57.23;-17125.47;5000703;28;20021;-78
2023/07/02 09:14:00;;;;;;;11.35;5.78;;;;;;;-148.88;59.11;-17125.47;5018078;28;20018;-78
2023/07/02 09:16:27;;;;;;;10.95;5.55;;;;;;;-148.88;58.03;-17125.47;5017855;28;20037;-79
2023/07/02 09:19:07;;;;;;;18.05;6.18;;;;;;;-148.88;59.00;-17125.47;4999979;28;20033;-78
2023/07/02 09:21:49;;;;;;;13.45;6.00;;;;;;;-148.88;56.47;-17125.47;4999105;28;20097;-78
2023/07/02 09:24:22;;;;;;;12.98;6.20;;;;;;;-148.88;59.98;-17125.47;5017003;28;20399;-79
2023/07/02 09:26:55;;;;;;;15.40;5.82;;;;;;;-148.88;60.00;-17125.47;4999765;28;20026;-77
2023/07/02 09:29:28;;;;;;;14.77;5.97;;;;;;;-148.88;59.24;-17125.47;4998990;28;20442;-80
2023/07/02 09:31:54;;;;;;;12.35;5.80;;;;;;;-148.88;54.45;-17125.47;5017090;28;20033;-78
2023/07/02 09:34:19;;;;;;;16.65;6.07;;;;;;;-148.88;54.83;-17125.47;5016193;28;20033;-77
2023/07/02 09:36:45;;;;;;;15.20;6.22;;;;;;;-148.88;54.96;-17125.47;4999200;28;20034;-78
2023/07/02 09:39:18;;;;;;;13.27;5.57;;;;;;;-148.88;54.56;-17125.47;5016001;28;20026;-80
2023/07/02 09:41:45;;;;;;;12.32;6.00;;;;;;;-148.88;54.48;-17125.47;5018720;28;20026;-81
2023/07/02 09:44:12;;;;;;;12.85;6.07;;;;;;;-148.88;56.58;-17125.47;5002775;28;20022;-80
2023/07/02 09:46:45;;;;;;;13.60;6.40;;;;;;;-148.88;54.12;-17125.47;5019509;28;20085;-79
2023/07/02 09:49:17;;;;;;;12.30;5.78;;;;;;;-148.88;56.22;-17125.47;4999979;28;20045;-79
2023/07/02 09:51:43;;;;;;;13.27;5.88;;;;;;;-148.88;53.92;-17125.47;4999932;28;20026;-79
2023/07/02 09:54:10;;;;;;;15.15;6.60;;;;;;;-148.88;53.76;-17125.47;5017931;28;20056;-80
2023/07/02 09:56:35;;;;;;;13.52;6.38;;;;;;;-148.88;53.30;-17125.47;5000568;28;20059;-79
2023/07/02 09:59:01;;;;;;;12.43;6.00;;;;;;;-148.88;51.07;-17125.47;5018636;28;20450;-79
2023/07/02 10:01:26;;;;;;;10.90;5.30;;;;;;;-148.88;51.64;-17125.47;5000752;28;20029;-78
2023/07/02 10:03:51;;;;;;;12.02;5.43;;;;;;;-148.88;50.07;-17125.47;5000280;28;20109;-77
2023/07/02 10:06:17;;;;;;;9.70;5.25;;;;;;;-148.88;49.51;-17125.47;5000287;28;20056;-79
2023/07/02 10:08:55;;;;;;;13.07;5.43;;;;;;;-148.88;48.11;-17125.47;5000508;28;20028;-78
2023/07/02 10:11:32;;;;;;;11.63;5.50;;;;;;;-148.88;48.04;-17125.47;4998181;28;20495;-77
2023/07/02 10:13:59;;;;;;;11.88;5.63;;;;;;;-148.88;50.16;-17125.47;5015062;28;20029;-78
2023/07/02 10:16:27;;;;;;;10.02;5.30;;;;;;;-148.88;48.64;-17125.47;4997282;28;20037;-78
2023/07/02 10:18:52;;;;;;;13.50;5.90;;;;;;;-148.88;51.29;-17125.47;5019383;28;20503;-79
2023/07/02 10:21:18;;;;;;;11.35;5.65;;;;;;;-148.88;51.55;-17125.47;5002749;28;20122;-79
2023/07/02 10:23:44;;;;;;;12.77;5.80;;;;;;;-148.88;50.61;-17125.47;5003475;28;20026;-80
2023/07/02 10:26:17;;;;;;;12.50;5.45;;;;;;;-148.88;50.71;-17125.47;5001722;28;20108;-80
2023/07/02 10:28:55;;;;;;;17.00;5.63;;;;;;;-148.88;52.61;-17125.47;5001176;28;20046;-80
2023/07/02 10:31:21;;;;;;;11.32;5.65;;;;;;;-148.88;52.22;-17125.47;5020273;28;20029;-79
2023/07/02 10:33:47;;;;;;;14.27;5.95;;;;;;;-148.88;51.70;-17125.47;5020040;28;20118;-80
2023/07/02 10:36:23;;;;;;;12.23;5.30;;;;;;;-148.88;51.90;-17125.47;5001925;28;20096;-80
2023/07/02 10:38:49;;;;;;;14.10;5.97;;;;;;;-148.88;52.70;-17125.47;5019262;28;20089;-80
2023/07/02 10:41:29;;;;;;;14.93;6.50;;;;;;;-148.88;53.86;-17125.47;5000959;28;20021;-81
2023/07/02 10:44:05;;;;;;;10.95;5.40;;;;;;;-148.88;51.68;-17125.47;5019207;28;20025;-80
2023/07/02 10:46:30;;;;;;;12.70;6.18;;;;;;;-148.88;51.21;-17125.47;5002702;28;20022;-80
2023/07/02 10:48:56;;;;;;;11.15;5.43;;;;;;;-148.88;51.58;-17125.47;5000701;28;20383;-78
2023/07/02 10:51:23;;;;;;;11.50;5.35;;;;;;;-148.88;47.98;-17125.47;4998157;28;20040;-77
2023/07/02 10:53:59;;;;;;;15.30;5.72;;;;;;;-148.88;49.90;-17125.47;5014964;28;20036;-79
2023/07/02 10:56:28;;;;;;;13.55;5.85;;;;;;;-148.88;49.70;-17125.47;5002847;28;20034;-79
2023/07/02 10:58:54;;;;;;;13.95;5.80;;;;;;;-148.88;51.07;-17125.47;5002801;28;20046;-81